createdAt,value
2023-03-18T00:04:45.460Z,58.23
2023-03-18T00:09:47.673Z,58.25
2023-03-18T00:14:50.020Z,59.65
2023-03-18T00:19:52.298Z,59.37
2023-03-18T00:24:55.831Z,59.67
2023-03-18T00:29:59.048Z,59.25
2023-03-18T00:35:01.630Z,58.72
2023-03-18T00:40:08.050Z,58.85
2023-03-18T00:45:11.957Z,59.17
2023-03-18T00:50:14.879Z,59.43
2023-03-18T00:55:17.224Z,59.57
2023-03-18T01:00:20.168Z,61.43
2023-03-18T01:05:23.128Z,62.11
2023-03-18T01:10:27.246Z,63.20
2023-03-18T01:15:29.805Z,63.62
2023-03-18T01:20:32.150Z,62.55
2023-03-18T01:25:34.613Z,62.46
2023-03-18T01:30:38.345Z,62.36
2023-03-18T01:35:41.259Z,61.40
2023-03-18T01:40:45.328Z,61.74
2023-03-18T01:45:56.377Z,62.45
2023-03-18T01:51:04.216Z,63.15
2023-03-18T01:56:09.087Z,63.50
2023-03-18T02:01:21.056Z,62.76
2023-03-18T02:06:24.609Z,61.35
2023-03-18T02:11:27.214Z,60.18
2023-03-18T02:16:40.155Z,60.47
2023-03-18T02:21:53.990Z,60.68
2023-03-18T02:27:19.936Z,60.48
2023-03-18T02:32:24.915Z,63.31
2023-03-18T02:37:27.404Z,62.21
2023-03-18T02:42:31.569Z,62.39
2023-03-18T02:47:33.783Z,63.99
2023-03-18T02:52:36.316Z,65.02
2023-03-18T02:57:38.548Z,64.94
2023-03-18T03:02:41.880Z,66.01
2023-03-18T03:07:44.165Z,66.27
2023-03-18T03:12:46.401Z,66.43
2023-03-18T03:17:51.615Z,67.28
2023-03-18T03:22:54.197Z,67.13
2023-03-18T03:27:56.588Z,66.90
2023-03-18T03:33:00.260Z,68.18
2023-03-18T03:38:03.223Z,67.59
2023-03-18T03:43:06.322Z,67.30
2023-03-18T03:48:10.658Z,68.22
2023-03-18T03:53:12.876Z,68.11
2023-03-18T03:58:15.077Z,68.67
2023-03-18T04:03:17.309Z,68.32
2023-03-18T04:08:19.918Z,67.12
2023-03-18T04:13:22.061Z,66.17
2023-03-18T04:18:24.277Z,65.17
2023-03-18T04:23:26.854Z,65.88
2023-03-18T04:28:29.016Z,66.52
2023-03-18T04:33:32.275Z,64.79
2023-03-18T04:38:34.468Z,64.92
2023-03-18T04:43:36.705Z,65.08
2023-03-18T04:48:39.500Z,63.90
2023-03-18T04:53:42.237Z,62.73
2023-03-18T04:58:44.603Z,62.63
2023-03-18T05:03:47.469Z,61.69
2023-03-18T05:08:49.881Z,61.66
2023-03-18T05:13:52.299Z,61.28
2023-03-18T05:18:54.513Z,61.14
2023-03-18T05:23:56.694Z,61.26
2023-03-18T05:28:59.492Z,61.11
2023-03-18T05:34:01.684Z,61.34
2023-03-18T05:39:04.119Z,61.39
2023-03-18T05:44:07.317Z,61.22
2023-03-18T05:49:10.565Z,60.81
2023-03-18T05:54:13.829Z,61.18
2023-03-18T05:59:16.399Z,60.89
2023-03-18T06:04:19.443Z,60.17
2023-03-18T06:09:22.449Z,60.12
2023-03-18T06:14:29.327Z,60.03
2023-03-18T06:19:32.333Z,59.51
2023-03-18T06:24:34.516Z,58.96
2023-03-18T06:29:37.010Z,58.56
2023-03-18T06:34:39.272Z,58.05
2023-03-18T06:39:41.518Z,58.22
2023-03-18T06:44:52.493Z,58.10
2023-03-18T06:49:56.010Z,58.16
2023-03-18T06:54:58.280Z,57.34
2023-03-18T07:00:00.445Z,56.62
2023-03-18T07:05:04.438Z,56.48
2023-03-18T07:10:09.586Z,55.23
2023-03-18T07:15:12.022Z,54.80
2023-03-18T07:20:15.378Z,53.50
2023-03-18T07:25:18.004Z,53.08
2023-03-18T07:30:21.792Z,52.15
2023-03-18T07:35:24.366Z,51.11
2023-03-18T07:40:26.641Z,50.03
2023-03-18T07:45:29.296Z,49.41
2023-03-18T07:50:31.489Z,48.77
2023-03-18T07:55:34.334Z,48.11
2023-03-18T08:00:38.412Z,46.86
2023-03-18T08:05:41.194Z,46.02
2023-03-18T08:10:44.101Z,45.75
2023-03-18T08:15:46.837Z,44.95
2023-03-18T08:20:49.410Z,43.75
2023-03-18T08:25:52.894Z,44.01
2023-03-18T08:30:56.717Z,43.03
2023-03-18T08:35:59.439Z,37.63
2023-03-18T08:41:01.928Z,28.07
2023-03-18T08:46:04.923Z,24.98
2023-03-18T08:51:08.463Z,23.86
2023-03-18T08:56:11.829Z,22.17
2023-03-18T09:01:14.696Z,21.67
2023-03-18T09:06:17.124Z,21.43
2023-03-18T09:11:20.229Z,20.67
2023-03-18T09:16:28.916Z,20.63
2023-03-18T09:21:32.868Z,21.32
2023-03-18T09:26:35.074Z,21.20
2023-03-18T09:31:38.725Z,21.85
2023-03-18T09:36:42.241Z,23.96
2023-03-18T09:42:16.015Z,22.32
2023-03-18T09:47:28.547Z,21.36
2023-03-18T09:52:41.152Z,19.09
2023-03-18T09:57:47.093Z,20.31
2023-03-18T10:02:55.022Z,20.32
2023-03-18T10:08:04.830Z,20.91
2023-03-18T10:13:27.175Z,16.75
2023-03-18T10:18:35.913Z,16.27
2023-03-18T10:23:45.293Z,15.23
2023-03-18T10:29:08.961Z,14.94
2023-03-18T10:34:22.381Z,15.12
2023-03-18T10:39:27.721Z,13.98
2023-03-18T10:44:39.002Z,14.68
2023-03-18T10:49:46.666Z,14.55
2023-03-18T10:54:52.708Z,14.76
2023-03-18T10:59:55.377Z,14.32
2023-03-18T11:05:05.619Z,15.01
2023-03-18T11:10:18.162Z,15.99
2023-03-18T11:15:20.678Z,16.62
2023-03-18T11:20:43.265Z,16.20
2023-03-18T11:25:47.210Z,15.51
2023-03-18T11:30:55.274Z,15.00
2023-03-18T11:35:59.452Z,15.47
2023-03-18T11:41:18.038Z,14.32
2023-03-18T11:46:24.357Z,11.08
2023-03-18T11:51:46.679Z,13.07
2023-03-18T11:57:08.895Z,11.07
2023-03-18T12:02:43.628Z,11.08
2023-03-18T12:08:17.813Z,12.85
2023-03-18T12:13:57.606Z,11.28
2023-03-18T12:19:28.343Z,12.31
2023-03-18T12:25:09.181Z,11.26
2023-03-18T12:30:49.691Z,12.41
2023-03-18T12:36:11.088Z,14.40
2023-03-18T12:41:25.260Z,12.69
2023-03-18T12:47:04.875Z,13.11
2023-03-18T12:52:11.969Z,11.87
2023-03-18T12:57:38.014Z,12.50
2023-03-18T13:03:09.854Z,14.77
2023-03-18T13:08:26.924Z,13.07
2023-03-18T13:13:30.703Z,12.58
2023-03-18T13:18:44.000Z,16.95
2023-03-18T13:24:15.554Z,20.56
2023-03-18T13:29:55.491Z,22.00
2023-03-18T13:35:00.633Z,24.14
2023-03-18T13:40:42.706Z,23.29
2023-03-18T13:45:48.554Z,23.20
2023-03-18T13:50:51.907Z,18.24
2023-03-18T13:56:03.879Z,16.23
2023-03-18T14:01:24.969Z,16.38
2023-03-18T14:06:36.821Z,20.39
2023-03-18T14:11:50.444Z,20.96
2023-03-18T14:16:53.368Z,23.83
2023-03-18T14:22:16.597Z,22.71
2023-03-18T14:27:20.656Z,17.75
2023-03-18T14:32:22.745Z,19.04
2023-03-18T14:37:34.063Z,19.81
2023-03-18T14:42:48.502Z,20.35
2023-03-18T14:47:59.700Z,21.00
2023-03-18T14:53:10.108Z,24.68
2023-03-18T14:58:17.584Z,24.59
2023-03-18T15:03:24.939Z,23.28
2023-03-18T15:08:46.405Z,21.74
2023-03-18T15:13:54.284Z,21.49
2023-03-18T15:18:56.572Z,20.61
2023-03-18T15:24:03.731Z,21.55
2023-03-18T15:29:21.154Z,24.39
2023-03-18T15:34:43.695Z,23.30
2023-03-18T15:39:45.992Z,25.85
2023-03-18T15:44:59.901Z,26.83
2023-03-18T15:50:14.652Z,27.62
2023-03-18T15:55:47.540Z,31.43
2023-03-18T16:00:52.652Z,32.81
2023-03-18T16:05:55.399Z,32.62
2023-03-18T16:11:02.064Z,33.00
2023-03-18T16:16:04.749Z,35.60
2023-03-18T16:21:06.993Z,36.52
2023-03-18T16:26:16.196Z,38.25
2023-03-18T16:31:18.786Z,37.80
2023-03-18T16:36:35.149Z,38.54
2023-03-18T16:41:37.701Z,40.61
2023-03-18T16:46:41.595Z,41.65
2023-03-18T16:51:44.584Z,40.40
2023-03-18T16:56:49.997Z,41.16
2023-03-18T17:01:53.915Z,41.72
2023-03-18T17:07:04.817Z,42.40
2023-03-18T17:12:07.607Z,43.16
2023-03-18T17:17:21.930Z,44.35
2023-03-18T17:22:27.014Z,45.74
2023-03-18T17:27:37.353Z,46.56
2023-03-18T17:32:39.900Z,46.71
2023-03-18T17:37:43.095Z,47.18
2023-03-18T17:42:47.585Z,47.17
2023-03-18T17:47:50.334Z,48.84
2023-03-18T17:52:53.245Z,49.46
2023-03-18T17:57:56.463Z,49.46
2023-03-18T18:02:58.761Z,51.13
2023-03-18T18:08:00.974Z,50.68
2023-03-18T18:13:03.140Z,51.20
2023-03-18T18:18:29.110Z,51.30
2023-03-18T18:23:32.555Z,51.71
2023-03-18T18:28:36.617Z,51.81
2023-03-18T18:33:42.265Z,51.66
2023-03-18T18:38:44.419Z,52.42
2023-03-18T18:43:46.553Z,51.93
2023-03-18T18:48:49.316Z,52.49
2023-03-18T18:53:53.773Z,52.52
2023-03-18T18:58:56.669Z,53.74
2023-03-18T19:03:58.842Z,53.84
2023-03-18T19:09:04.967Z,54.24
2023-03-18T19:14:39.951Z,54.35
2023-03-18T19:19:43.876Z,55.78
2023-03-18T19:24:48.424Z,55.35
2023-03-18T19:29:52.744Z,54.73
2023-03-18T19:34:56.086Z,56.06
2023-03-18T19:40:00.689Z,54.56
2023-03-18T19:45:02.882Z,55.06
2023-03-18T19:50:17.564Z,55.53
2023-03-18T19:55:20.114Z,55.37
2023-03-18T20:00:24.676Z,55.33
2023-03-18T20:05:26.884Z,55.09
2023-03-18T20:10:30.041Z,55.54
2023-03-18T20:15:32.742Z,55.77
2023-03-18T20:20:35.591Z,55.97
2023-03-18T20:25:42.288Z,56.52
2023-03-18T20:30:46.182Z,55.65
2023-03-18T20:35:51.328Z,55.11
2023-03-18T20:40:53.664Z,54.96
2023-03-18T20:45:58.044Z,54.55
2023-03-18T20:51:00.292Z,55.49
2023-03-18T20:56:02.521Z,56.01
2023-03-18T21:01:04.969Z,56.41
2023-03-18T21:06:12.151Z,56.49
2023-03-18T21:11:22.662Z,57.40
2023-03-18T21:16:25.353Z,57.28
2023-03-18T21:21:36.576Z,56.45
2023-03-18T21:26:39.549Z,56.22
2023-03-18T21:31:42.195Z,55.47
2023-03-18T21:36:44.372Z,56.10
2023-03-18T21:41:46.557Z,56.89
2023-03-18T21:46:48.729Z,57.61
2023-03-18T21:51:50.918Z,58.25
2023-03-18T21:56:53.098Z,59.32
2023-03-18T22:01:55.418Z,61.28
2023-03-18T22:06:57.645Z,62.86
2023-03-18T22:11:59.867Z,63.56
2023-03-18T22:22:26.416Z,65.06
2023-03-18T22:27:31.433Z,65.32
2023-03-18T22:32:36.886Z,66.15
2023-03-18T22:37:39.315Z,66.27
2023-03-18T22:42:41.806Z,66.95
2023-03-18T22:47:43.960Z,66.37
2023-03-18T22:52:48.432Z,65.74
2023-03-18T22:57:51.263Z,69.15
2023-03-18T23:02:53.810Z,68.74
2023-03-18T23:07:56.054Z,69.27
2023-03-18T23:12:58.604Z,68.20
2023-03-18T23:18:01.942Z,68.99
2023-03-18T23:23:04.141Z,67.92
2023-03-18T23:28:06.751Z,68.15
2023-03-18T23:33:11.589Z,68.89
2023-03-18T23:38:13.988Z,69.64
2023-03-18T23:43:16.699Z,70.37
2023-03-18T23:48:18.962Z,69.25
2023-03-18T23:53:21.428Z,68.82
2023-03-18T23:58:23.732Z,69.49
